createdAt,value
2022-12-25T00:01:15.974Z,97.87
2022-12-25T00:03:49.456Z,97.35
2022-12-25T00:06:19.064Z,97.10
2022-12-25T00:08:47.561Z,96.63
2022-12-25T00:11:18.473Z,95.93
2022-12-25T00:13:47.753Z,95.93
2022-12-25T00:16:22.062Z,95.83
2022-12-25T00:18:52.418Z,96.60
2022-12-25T00:21:21.956Z,96.81
2022-12-25T00:23:59.929Z,97.42
2022-12-25T00:26:28.719Z,98.49
2022-12-25T00:28:58.188Z,98.49
2022-12-25T00:31:26.935Z,98.84
2022-12-25T00:33:55.412Z,98.44
2022-12-25T00:36:24.411Z,98.54
2022-12-25T00:38:52.844Z,98.45
2022-12-25T00:41:43.062Z,98.25
2022-12-25T00:44:14.122Z,97.93
2022-12-25T00:46:42.906Z,98.35
2022-12-25T00:49:12.417Z,98.23
2022-12-25T00:51:41.555Z,97.81
2022-12-25T00:54:10.199Z,98.00
2022-12-25T00:56:38.476Z,97.56
2022-12-25T00:59:06.864Z,97.97
2022-12-25T01:01:35.318Z,97.81
2022-12-25T01:04:04.304Z,97.27
2022-12-25T01:06:33.325Z,96.96
2022-12-25T01:09:20.464Z,96.95
2022-12-25T01:11:48.932Z,96.68
2022-12-25T01:14:17.104Z,96.67
2022-12-25T01:16:45.596Z,96.14
2022-12-25T01:19:13.863Z,96.18
2022-12-25T01:21:42.069Z,95.95
2022-12-25T01:24:10.237Z,95.94
2022-12-25T01:26:38.501Z,95.86
2022-12-25T01:29:07.313Z,95.88
2022-12-25T01:31:35.913Z,95.74
2022-12-25T01:34:04.811Z,96.44
2022-12-25T01:36:33.771Z,97.23
2022-12-25T01:39:01.926Z,97.94
2022-12-25T01:41:30.579Z,97.46
2022-12-25T01:44:27.786Z,97.65
2022-12-25T01:46:56.673Z,97.34
2022-12-25T01:49:26.582Z,97.63
2022-12-25T01:51:59.467Z,97.50
2022-12-25T01:54:32.244Z,97.48
2022-12-25T01:57:05.678Z,96.35
2022-12-25T01:59:33.830Z,97.65
2022-12-25T02:02:02.637Z,98.37
2022-12-25T02:04:49.337Z,98.59
2022-12-25T02:07:20.698Z,98.13
2022-12-25T02:09:49.389Z,98.55
2022-12-25T02:12:24.216Z,99.21
2022-12-25T02:15:02.878Z,99.66
2022-12-25T02:17:38.993Z,99.55
2022-12-25T02:20:30.443Z,100.00
2022-12-25T02:23:33.307Z,100.00
2022-12-25T02:26:32.130Z,100.00
2022-12-25T02:29:26.695Z,99.97
2022-12-25T02:32:02.971Z,100.00
2022-12-25T02:34:46.396Z,100.00
2022-12-25T02:37:28.586Z,100.00
2022-12-25T02:40:06.896Z,100.00
2022-12-25T02:43:13.486Z,100.00
2022-12-25T02:46:14.682Z,100.00
2022-12-25T02:49:11.582Z,100.00
2022-12-25T02:52:04.582Z,100.00
2022-12-25T02:54:57.899Z,100.00
2022-12-25T02:57:51.066Z,99.74
2022-12-25T03:00:38.508Z,100.00
2022-12-25T03:03:29.478Z,98.95
2022-12-25T03:06:22.256Z,99.39
2022-12-25T03:09:16.495Z,100.00
2022-12-25T03:11:47.714Z,100.00
2022-12-25T03:14:34.825Z,100.00
2022-12-25T03:17:03.222Z,100.00
2022-12-25T03:19:53.582Z,100.00
2022-12-25T03:22:47.672Z,100.00
2022-12-25T03:25:35.192Z,100.00
2022-12-25T03:28:05.526Z,99.78
2022-12-25T03:31:12.277Z,99.77
2022-12-25T03:34:21.962Z,99.99
2022-12-25T03:37:23.199Z,100.00
2022-12-25T03:40:25.647Z,100.00
2022-12-25T03:43:20.692Z,100.00
2022-12-25T03:46:12.730Z,100.00
2022-12-25T03:49:04.657Z,100.00
2022-12-25T03:51:55.583Z,100.00
2022-12-25T03:54:46.942Z,100.00
2022-12-25T03:57:34.029Z,100.00
2022-12-25T04:00:21.121Z,99.90
2022-12-25T04:03:08.292Z,99.09
2022-12-25T04:05:55.508Z,99.97
2022-12-25T04:08:42.510Z,100.00
2022-12-25T04:11:29.625Z,100.00
2022-12-25T04:14:17.545Z,100.00
2022-12-25T04:17:04.779Z,100.00
2022-12-25T04:19:51.798Z,100.00
2022-12-25T04:22:39.417Z,100.00
2022-12-25T04:25:27.132Z,100.00
2022-12-25T04:28:20.328Z,99.92
2022-12-25T04:31:07.741Z,99.97
2022-12-25T04:33:54.692Z,100.00
2022-12-25T04:36:23.045Z,100.00
2022-12-25T04:38:51.218Z,100.00
2022-12-25T04:41:19.490Z,99.97
2022-12-25T04:43:47.880Z,99.96
2022-12-25T04:46:16.090Z,100.00
2022-12-25T04:48:44.435Z,100.00
2022-12-25T04:51:18.457Z,99.49
2022-12-25T04:53:47.606Z,100.00
2022-12-25T04:56:17.047Z,99.91
2022-12-25T04:58:46.442Z,99.62
2022-12-25T05:01:15.686Z,98.98
2022-12-25T05:03:44.051Z,98.95
2022-12-25T05:06:12.615Z,100.00
2022-12-25T05:08:41.843Z,100.00
2022-12-25T05:11:13.268Z,100.00
2022-12-25T05:13:41.518Z,100.00
2022-12-25T05:16:21.157Z,100.00
2022-12-25T05:18:51.203Z,100.00
2022-12-25T05:21:20.824Z,99.78
2022-12-25T05:23:52.685Z,99.73
2022-12-25T05:26:23.806Z,100.00
2022-12-25T05:28:52.313Z,100.00
2022-12-25T05:31:21.006Z,100.00
2022-12-25T05:33:51.571Z,100.00
2022-12-25T05:36:20.533Z,100.00
2022-12-25T05:38:48.800Z,100.00
2022-12-25T05:41:17.285Z,100.00
2022-12-25T05:43:45.547Z,100.00
2022-12-25T05:46:14.598Z,99.99
2022-12-25T05:48:42.779Z,100.00
2022-12-25T05:51:14.243Z,99.77
2022-12-25T05:53:43.795Z,99.98
2022-12-25T05:56:12.273Z,99.76
2022-12-25T05:58:41.341Z,100.00
2022-12-25T06:01:22.363Z,100.00
2022-12-25T06:03:51.316Z,100.00
2022-12-25T06:06:19.730Z,100.00
2022-12-25T06:08:48.071Z,100.00
2022-12-25T06:11:16.311Z,100.00
2022-12-25T06:13:45.364Z,100.00
2022-12-25T06:16:14.879Z,100.00
2022-12-25T06:18:47.909Z,100.00
2022-12-25T06:21:16.562Z,100.00
2022-12-25T06:23:45.564Z,100.00
2022-12-25T06:26:17.783Z,100.00
2022-12-25T06:28:46.532Z,100.00
2022-12-25T06:31:18.002Z,100.00
2022-12-25T06:33:46.779Z,100.00
2022-12-25T06:36:23.716Z,100.00
2022-12-25T06:38:53.044Z,100.00
2022-12-25T06:41:24.525Z,99.91
2022-12-25T06:43:55.592Z,99.83
2022-12-25T06:46:27.110Z,100.00
2022-12-25T06:48:55.679Z,100.00
2022-12-25T06:51:27.762Z,100.00
2022-12-25T06:53:56.744Z,100.00
2022-12-25T06:56:27.927Z,100.00
2022-12-25T06:59:00.095Z,100.00
2022-12-25T07:01:30.146Z,100.00
2022-12-25T07:04:02.558Z,100.00
2022-12-25T07:06:31.069Z,100.00
2022-12-25T07:08:59.712Z,100.00
2022-12-25T07:11:28.764Z,100.00
2022-12-25T07:13:57.404Z,100.00
2022-12-25T07:16:26.021Z,100.00
2022-12-25T07:18:54.294Z,99.97
2022-12-25T07:21:22.493Z,99.42
2022-12-25T07:23:50.928Z,99.99
2022-12-25T07:26:19.341Z,99.60
2022-12-25T07:28:48.294Z,99.38
2022-12-25T07:31:18.284Z,98.79
2022-12-25T07:33:46.914Z,97.97
2022-12-25T07:36:15.786Z,97.80
2022-12-25T07:38:50.055Z,98.68
2022-12-25T07:41:21.280Z,98.12
2022-12-25T07:43:51.594Z,99.06
2022-12-25T07:46:21.420Z,98.26
2022-12-25T07:48:50.721Z,97.25
2022-12-25T07:51:19.694Z,96.16
2022-12-25T07:53:47.766Z,97.60
2022-12-25T07:56:20.900Z,97.72
2022-12-25T07:58:50.479Z,98.37
2022-12-25T08:01:26.751Z,97.89
2022-12-25T08:04:00.410Z,97.26
2022-12-25T08:06:35.230Z,96.80
2022-12-25T08:09:09.510Z,96.00
2022-12-25T08:11:38.487Z,94.31
2022-12-25T08:14:08.397Z,93.17
2022-12-25T08:16:39.992Z,92.24
2022-12-25T08:19:09.680Z,91.06
2022-12-25T08:21:38.457Z,91.24
2022-12-25T08:24:08.198Z,90.44
2022-12-25T08:26:36.551Z,90.19
2022-12-25T08:29:04.671Z,89.10
2022-12-25T08:31:37.164Z,89.83
2022-12-25T08:34:08.446Z,90.17
2022-12-25T08:36:37.709Z,89.42
2022-12-25T08:39:05.924Z,88.07
2022-12-25T08:41:37.179Z,87.39
2022-12-25T08:44:07.231Z,87.35
2022-12-25T08:46:36.852Z,87.88
2022-12-25T08:49:05.796Z,88.05
2022-12-25T08:51:34.435Z,88.68
2022-12-25T08:54:02.656Z,88.77
2022-12-25T08:56:31.253Z,88.19
2022-12-25T08:58:59.642Z,87.69
2022-12-25T09:01:29.190Z,87.67
2022-12-25T09:03:57.567Z,86.36
2022-12-25T09:06:25.821Z,84.71
2022-12-25T09:08:55.299Z,83.66
2022-12-25T09:11:24.326Z,82.81
2022-12-25T09:13:55.129Z,82.06
2022-12-25T09:16:23.776Z,81.87
2022-12-25T09:18:52.408Z,84.09
2022-12-25T09:21:20.577Z,80.21
2022-12-25T09:23:49.227Z,78.47
2022-12-25T09:26:18.941Z,78.23
2022-12-25T09:28:52.051Z,79.35
2022-12-25T09:31:22.152Z,78.17
2022-12-25T09:33:51.151Z,73.57
2022-12-25T09:36:21.594Z,74.97
2022-12-25T09:38:49.775Z,72.26
2022-12-25T09:41:18.520Z,71.02
2022-12-25T09:44:10.615Z,70.94
2022-12-25T09:46:51.028Z,71.65
2022-12-25T09:49:54.194Z,74.07
2022-12-25T09:52:49.177Z,71.02
2022-12-25T09:55:20.840Z,71.60
2022-12-25T09:57:58.888Z,70.81
2022-12-25T10:00:41.601Z,69.63
2022-12-25T10:03:12.888Z,70.84
2022-12-25T10:05:53.486Z,70.75
2022-12-25T10:08:49.816Z,71.02
2022-12-25T10:11:42.697Z,71.84
2022-12-25T10:14:42.383Z,72.24
2022-12-25T10:17:33.344Z,72.80
2022-12-25T10:20:04.725Z,72.69
2022-12-25T10:22:44.575Z,71.29
2022-12-25T10:25:21.472Z,70.31
2022-12-25T10:27:54.474Z,70.89
2022-12-25T10:30:26.130Z,71.22
2022-12-25T10:32:57.862Z,71.70
2022-12-25T10:35:29.777Z,71.50
2022-12-25T10:38:02.396Z,69.57
2022-12-25T10:41:13.298Z,68.83
2022-12-25T10:43:51.861Z,68.25
2022-12-25T10:46:24.610Z,69.60
2022-12-25T10:49:03.131Z,68.70
2022-12-25T10:51:35.195Z,69.62
2022-12-25T10:54:21.688Z,69.83
2022-12-25T10:57:00.819Z,70.51
2022-12-25T10:59:43.543Z,71.08
2022-12-25T11:02:37.441Z,71.58
2022-12-25T11:05:25.812Z,71.70
2022-12-25T11:07:55.494Z,71.91
2022-12-25T11:10:32.902Z,72.28
2022-12-25T11:13:02.954Z,72.95
2022-12-25T11:15:42.681Z,73.52
2022-12-25T11:18:28.639Z,73.85
2022-12-25T11:21:00.106Z,73.41
2022-12-25T11:23:31.571Z,73.20
2022-12-25T11:26:05.854Z,73.32
2022-12-25T11:28:39.206Z,72.77
2022-12-25T11:31:15.916Z,73.23
2022-12-25T11:34:06.635Z,73.30
2022-12-25T11:36:48.543Z,73.26
2022-12-25T11:39:23.152Z,72.92
2022-12-25T11:42:05.989Z,73.78
2022-12-25T11:45:01.311Z,74.24
2022-12-25T11:47:54.533Z,73.88
2022-12-25T11:50:28.817Z,73.70
2022-12-25T11:53:02.124Z,70.88
2022-12-25T11:55:57.373Z,68.69
2022-12-25T11:58:36.482Z,69.43
2022-12-25T12:01:18.141Z,67.78
2022-12-25T12:03:46.425Z,66.74
2022-12-25T12:06:14.779Z,66.54
2022-12-25T12:08:43.853Z,66.85
2022-12-25T12:11:35.698Z,65.94
2022-12-25T12:14:23.229Z,65.43
2022-12-25T12:16:52.437Z,66.99
2022-12-25T12:19:29.778Z,67.64
2022-12-25T12:22:01.739Z,68.56
2022-12-25T12:24:37.039Z,68.37
2022-12-25T12:27:25.057Z,67.26
2022-12-25T12:29:57.717Z,65.91
2022-12-25T12:32:43.193Z,64.84
2022-12-25T12:35:22.088Z,64.87
2022-12-25T12:38:03.576Z,63.54
2022-12-25T12:40:36.072Z,62.47
2022-12-25T12:43:06.130Z,63.01
2022-12-25T12:45:38.414Z,63.64
2022-12-25T12:48:25.213Z,63.17
2022-12-25T12:51:11.105Z,62.93
2022-12-25T12:53:41.999Z,63.20
2022-12-25T12:56:19.877Z,62.53
2022-12-25T12:58:51.236Z,62.70
2022-12-25T13:01:45.140Z,62.74
2022-12-25T13:04:13.772Z,62.79
2022-12-25T13:06:58.259Z,63.13
2022-12-25T13:09:48.412Z,63.36
2022-12-25T13:12:18.095Z,63.92
2022-12-25T13:14:48.525Z,64.63
2022-12-25T13:17:24.194Z,64.92
2022-12-25T13:19:57.519Z,64.86
2022-12-25T13:22:36.687Z,65.34
2022-12-25T13:25:14.798Z,65.34
2022-12-25T13:27:43.139Z,65.68
2022-12-25T13:30:14.376Z,65.41
2022-12-25T13:32:45.958Z,65.94
2022-12-25T13:35:15.801Z,66.23
2022-12-25T13:37:45.346Z,66.46
2022-12-25T13:40:23.890Z,66.82
2022-12-25T13:43:00.879Z,66.96
2022-12-25T13:45:31.263Z,67.54
2022-12-25T13:48:14.740Z,67.79
2022-12-25T13:50:48.478Z,68.09
2022-12-25T13:53:18.140Z,68.24
2022-12-25T13:55:52.752Z,68.59
2022-12-25T13:58:31.239Z,68.89
2022-12-25T14:01:02.851Z,69.27
2022-12-25T14:03:41.316Z,69.57
2022-12-25T14:06:26.857Z,71.82
2022-12-25T14:08:58.031Z,72.92
2022-12-25T14:11:29.729Z,73.68
2022-12-25T14:14:04.352Z,74.75
2022-12-25T14:16:33.537Z,75.88
2022-12-25T14:19:03.080Z,76.38
2022-12-25T14:21:41.870Z,77.22
2022-12-25T14:24:15.542Z,77.80
2022-12-25T14:26:44.428Z,78.29
2022-12-25T14:29:19.762Z,78.20
2022-12-25T14:31:50.978Z,78.97
2022-12-25T14:34:23.233Z,78.84
2022-12-25T14:36:52.775Z,79.15
2022-12-25T14:39:29.077Z,79.96
2022-12-25T14:41:58.728Z,80.93
2022-12-25T14:44:40.429Z,82.34
2022-12-25T14:47:18.153Z,84.22
2022-12-25T14:49:47.810Z,84.97
2022-12-25T14:52:19.420Z,85.38
2022-12-25T14:55:02.242Z,84.49
2022-12-25T14:57:35.223Z,83.55
2022-12-25T15:00:08.101Z,82.45
2022-12-25T15:02:45.794Z,84.90
2022-12-25T15:05:27.683Z,87.23
2022-12-25T15:08:11.627Z,90.10
2022-12-25T15:13:33.173Z,89.84
2022-12-25T15:16:04.855Z,89.99
2022-12-25T15:18:39.872Z,90.29
2022-12-25T15:21:21.509Z,92.24
2022-12-25T15:23:49.790Z,93.63
2022-12-25T15:26:18.966Z,93.29
2022-12-25T15:28:47.556Z,93.76
2022-12-25T15:31:30.630Z,94.58
2022-12-25T15:34:06.584Z,92.24
2022-12-25T15:36:34.866Z,92.84
2022-12-25T15:39:04.424Z,92.62
2022-12-25T15:41:54.683Z,93.68
2022-12-25T15:44:25.218Z,94.02
2022-12-25T15:46:53.671Z,93.10
2022-12-25T15:49:21.864Z,92.53
2022-12-25T15:51:50.480Z,93.66
2022-12-25T15:54:19.243Z,93.74
2022-12-25T15:56:53.835Z,93.85
2022-12-25T15:59:23.821Z,95.60
2022-12-25T16:01:58.172Z,93.98
2022-12-25T16:04:28.338Z,94.36
2022-12-25T16:06:56.824Z,96.96
2022-12-25T16:09:26.694Z,96.24
2022-12-25T16:11:54.923Z,95.41
2022-12-25T16:14:24.145Z,93.97
2022-12-25T16:16:52.387Z,93.49
2022-12-25T16:19:20.866Z,93.02
2022-12-25T16:21:49.062Z,92.44
2022-12-25T16:24:17.672Z,92.34
2022-12-25T16:26:46.111Z,92.78
2022-12-25T16:29:15.032Z,94.00
2022-12-25T16:31:43.370Z,96.63
2022-12-25T16:34:11.697Z,96.46
2022-12-25T16:36:41.003Z,95.52
2022-12-25T16:39:09.143Z,93.92
2022-12-25T16:41:38.170Z,92.90
2022-12-25T16:44:09.631Z,92.14
2022-12-25T16:46:40.381Z,92.28
2022-12-25T16:49:09.245Z,92.23
2022-12-25T16:51:37.403Z,92.48
2022-12-25T16:54:07.111Z,93.07
2022-12-25T16:56:36.914Z,93.53
2022-12-25T16:59:04.991Z,93.89
2022-12-25T17:01:33.924Z,94.90
2022-12-25T17:04:02.527Z,96.29
2022-12-25T17:06:31.060Z,96.71
2022-12-25T17:09:00.661Z,94.26
2022-12-25T17:11:30.439Z,92.60
2022-12-25T17:14:02.321Z,91.22
2022-12-25T17:16:34.182Z,90.49
2022-12-25T17:19:10.952Z,90.96
2022-12-25T17:21:40.691Z,90.04
2022-12-25T17:24:09.387Z,88.90
2022-12-25T17:26:38.219Z,88.64
2022-12-25T17:29:06.674Z,89.10
2022-12-25T17:31:35.248Z,92.78
2022-12-25T17:34:05.094Z,92.17
2022-12-25T17:36:34.147Z,94.34
2022-12-25T17:39:05.393Z,92.26
2022-12-25T17:41:35.015Z,91.81
2022-12-25T17:44:04.197Z,90.54
2022-12-25T17:46:33.119Z,90.80
2022-12-25T17:49:01.884Z,91.80
2022-12-25T17:51:32.116Z,91.47
2022-12-25T17:54:03.341Z,91.24
2022-12-25T17:56:32.898Z,92.46
2022-12-25T17:59:06.818Z,92.24
2022-12-25T18:01:38.552Z,90.91
2022-12-25T18:04:07.194Z,93.09
2022-12-25T18:06:37.137Z,95.36
2022-12-25T18:09:06.630Z,96.30
2022-12-25T18:11:39.794Z,96.64
2022-12-25T18:14:12.329Z,96.28
2022-12-25T18:16:43.491Z,94.82
2022-12-25T18:19:13.097Z,96.03
2022-12-25T18:21:41.351Z,95.20
2022-12-25T18:24:10.432Z,92.54
2022-12-25T18:26:38.985Z,91.55
2022-12-25T18:29:07.952Z,91.74
2022-12-25T18:31:37.272Z,91.90
2022-12-25T18:34:05.706Z,93.26
2022-12-25T18:36:33.887Z,92.90
2022-12-25T18:39:02.510Z,92.19
2022-12-25T18:41:30.968Z,93.49
2022-12-25T18:44:00.091Z,93.79
2022-12-25T18:46:29.596Z,93.07
2022-12-25T18:48:58.034Z,92.12
2022-12-25T18:51:32.934Z,92.32
2022-12-25T18:54:04.733Z,95.04
2022-12-25T18:56:33.228Z,98.32
2022-12-25T18:59:01.701Z,97.48
2022-12-25T19:01:30.413Z,95.67
2022-12-25T19:04:04.591Z,93.98
2022-12-25T19:06:34.315Z,95.08
2022-12-25T19:09:09.263Z,96.29
2022-12-25T19:11:45.977Z,95.33
2022-12-25T19:14:15.628Z,94.05
2022-12-25T19:16:44.914Z,93.39
2022-12-25T19:19:14.641Z,92.88
2022-12-25T19:21:43.450Z,93.09
2022-12-25T19:24:11.577Z,93.10
2022-12-25T19:26:40.405Z,92.74
2022-12-25T19:29:08.538Z,92.74
2022-12-25T19:31:38.928Z,91.92
2022-12-25T19:34:09.159Z,91.54
2022-12-25T19:36:38.946Z,90.40
2022-12-25T19:39:08.744Z,90.11
2022-12-25T19:41:37.854Z,94.15
2022-12-25T19:44:06.848Z,95.25
2022-12-25T19:46:37.753Z,93.27
2022-12-25T19:49:08.052Z,93.23
2022-12-25T19:51:39.618Z,93.18
2022-12-25T19:54:11.531Z,92.41
2022-12-25T19:56:40.423Z,92.32
2022-12-25T19:59:08.846Z,92.60
2022-12-25T20:01:39.144Z,93.04
2022-12-25T20:04:09.809Z,93.17
2022-12-25T20:06:42.696Z,96.02
2022-12-25T20:09:21.084Z,97.64
2022-12-25T20:11:50.478Z,96.42
2022-12-25T20:14:19.830Z,95.37
2022-12-25T20:16:48.047Z,94.29
2022-12-25T20:19:16.823Z,94.20
2022-12-25T20:21:45.992Z,95.31
2022-12-25T20:24:14.221Z,97.38
2022-12-25T20:26:47.675Z,96.89
2022-12-25T20:29:16.724Z,96.07
2022-12-25T20:31:45.142Z,95.18
2022-12-25T20:34:13.379Z,95.31
2022-12-25T20:36:45.399Z,94.12
2022-12-25T20:39:14.334Z,92.37
2022-12-25T20:41:45.857Z,94.14
2022-12-25T20:44:16.362Z,97.88
2022-12-25T20:46:44.419Z,94.68
2022-12-25T20:49:13.895Z,94.97
2022-12-25T20:51:44.068Z,94.44
2022-12-25T20:54:14.040Z,95.09
2022-12-25T20:56:42.222Z,96.99
2022-12-25T20:59:12.056Z,95.15
2022-12-25T21:01:42.350Z,94.00
2022-12-25T21:04:16.029Z,95.24
2022-12-25T21:06:44.765Z,96.88
2022-12-25T21:09:13.427Z,96.82
2022-12-25T21:11:41.624Z,96.11
2022-12-25T21:14:11.340Z,96.19
2022-12-25T21:16:39.645Z,95.86
2022-12-25T21:19:08.041Z,95.03
2022-12-25T21:21:36.362Z,94.82
2022-12-25T21:24:05.134Z,94.75
2022-12-25T21:26:33.166Z,96.26
2022-12-25T21:29:04.567Z,98.12
2022-12-25T21:31:56.061Z,96.86
2022-12-25T21:34:24.269Z,96.46
2022-12-25T21:36:52.912Z,95.41
2022-12-25T21:39:22.076Z,95.44
2022-12-25T21:41:50.232Z,94.30
2022-12-25T21:44:19.065Z,94.45
2022-12-25T21:46:47.231Z,95.98
2022-12-25T21:49:35.591Z,94.85
2022-12-25T21:52:09.978Z,95.87
2022-12-25T21:54:38.368Z,94.65
2022-12-25T21:57:06.623Z,95.21
2022-12-25T21:59:35.930Z,94.76
2022-12-25T22:02:11.703Z,92.84
2022-12-25T22:04:40.322Z,97.42
2022-12-25T22:07:19.201Z,97.68
2022-12-25T22:09:49.947Z,94.85
2022-12-25T22:12:39.865Z,98.47
2022-12-25T22:15:10.504Z,99.59
2022-12-25T22:18:00.063Z,96.61
2022-12-25T22:20:34.732Z,94.59
2022-12-25T22:23:03.233Z,95.22
2022-12-25T22:25:32.947Z,95.71
2022-12-25T22:28:01.143Z,98.91
2022-12-25T22:30:30.420Z,99.95
2022-12-25T22:32:58.865Z,99.12
2022-12-25T22:35:27.125Z,99.82
2022-12-25T22:37:56.007Z,96.58
2022-12-25T22:40:24.461Z,97.01
2022-12-25T22:42:56.797Z,97.45
2022-12-25T22:45:24.991Z,94.59
2022-12-25T22:47:53.240Z,92.72
2022-12-25T22:50:21.677Z,93.02
2022-12-25T22:52:49.819Z,95.88
2022-12-25T22:55:19.455Z,96.42
2022-12-25T22:57:49.201Z,97.56
2022-12-25T23:00:17.487Z,98.08
2022-12-25T23:02:46.262Z,99.43
2022-12-25T23:05:14.532Z,96.97
2022-12-25T23:07:42.917Z,95.88
2022-12-25T23:10:11.701Z,95.84
2022-12-25T23:12:58.601Z,95.79
2022-12-25T23:15:28.207Z,96.38
2022-12-25T23:18:15.226Z,99.65
2022-12-25T23:21:03.076Z,100.00
2022-12-25T23:23:50.239Z,99.78
2022-12-25T23:26:20.411Z,98.85
2022-12-25T23:29:07.521Z,97.60
2022-12-25T23:31:38.459Z,95.05
2022-12-25T23:34:08.170Z,94.39
2022-12-25T23:36:36.891Z,94.79
2022-12-25T23:39:09.412Z,95.33
2022-12-25T23:41:40.605Z,95.42
2022-12-25T23:44:10.807Z,94.42
2022-12-25T23:46:39.887Z,93.27
2022-12-25T23:49:08.796Z,94.58
2022-12-25T23:51:44.857Z,95.12
2022-12-25T23:54:15.717Z,94.71
2022-12-25T23:56:44.280Z,93.82
2022-12-25T23:59:13.274Z,91.98
